createdAt,value
2022-08-02T00:01:04.644Z,98382.19
2022-08-02T00:03:34.608Z,98372.53
2022-08-02T00:06:05.032Z,98382.03
2022-08-02T00:08:33.701Z,98382.28
2022-08-02T00:11:02.436Z,98377.91
2022-08-02T00:13:33.985Z,98379.22
2022-08-02T00:16:02.480Z,98383.72
2022-08-02T00:18:32.207Z,98379.13
2022-08-02T00:21:02.131Z,98376.78
2022-08-02T00:23:30.650Z,98377.59
2022-08-02T00:25:59.710Z,98380.06
2022-08-02T00:28:28.892Z,98381.34
2022-08-02T00:30:58.562Z,98379.72
2022-08-02T00:34:09.062Z,98381.50
2022-08-02T00:36:18.715Z,98379.34
2022-08-02T00:38:48.031Z,98379.38
2022-08-02T00:41:21.276Z,98376.41
2022-08-02T00:43:53.432Z,98377.13
2022-08-02T00:46:22.773Z,98369.41
2022-08-02T00:48:51.927Z,98379.91
2022-08-02T00:51:21.783Z,98377.03
2022-08-02T00:53:50.347Z,98372.53
2022-08-02T00:56:19.075Z,98371.38
2022-08-02T00:58:47.824Z,98380.63
2022-08-02T01:01:18.236Z,98379.25
2022-08-02T01:03:46.723Z,98380.31
2022-08-02T01:06:15.945Z,98384.00
2022-08-02T01:08:45.767Z,98385.03
2022-08-02T01:11:15.044Z,98382.03
2022-08-02T01:13:44.592Z,98379.19
2022-08-02T01:16:21.679Z,98388.09
2022-08-02T01:18:58.445Z,98384.09
2022-08-02T01:21:49.010Z,98389.88
2022-08-02T01:24:48.546Z,98386.75
2022-08-02T01:27:38.971Z,98385.94
2022-08-02T01:30:09.980Z,98381.31
2022-08-02T01:32:50.257Z,98390.28
2022-08-02T01:35:29.449Z,98388.69
2022-08-02T01:38:25.719Z,98388.47
2022-08-02T01:40:58.274Z,98392.50
2022-08-02T01:43:31.465Z,98393.06
2022-08-02T01:46:04.155Z,98390.41
2022-08-02T01:48:36.980Z,98390.88
2022-08-02T01:51:09.531Z,98396.56
2022-08-02T01:53:42.206Z,98391.63
2022-08-02T01:56:13.874Z,98387.25
2022-08-02T01:58:45.465Z,98386.19
2022-08-02T02:01:18.608Z,98390.94
2022-08-02T02:03:51.858Z,98382.53
2022-08-02T02:06:21.827Z,98390.03
2022-08-02T02:08:53.980Z,98393.81
2022-08-02T02:12:09.410Z,98382.84
2022-08-02T02:14:15.128Z,98383.56
2022-08-02T02:16:49.328Z,98387.47
2022-08-02T02:19:22.718Z,98381.06
2022-08-02T02:21:52.331Z,98378.63
2022-08-02T02:24:21.558Z,98373.19
2022-08-02T02:26:52.841Z,98366.53
2022-08-02T02:29:26.632Z,98367.34
2022-08-02T02:31:59.531Z,98367.00
2022-08-02T02:34:34.891Z,98373.66
2022-08-02T02:37:10.199Z,98375.28
2022-08-02T02:39:43.314Z,98378.28
2022-08-02T02:42:18.183Z,98375.63
2022-08-02T02:44:49.732Z,98374.03
2022-08-02T02:47:41.246Z,98371.59
2022-08-02T02:50:12.467Z,98381.03
2022-08-02T02:52:42.837Z,98378.16
2022-08-02T02:55:15.850Z,98376.34
2022-08-02T02:57:45.293Z,98379.19
2022-08-02T03:00:16.477Z,98385.09
2022-08-02T03:02:49.298Z,98375.53
2022-08-02T03:05:17.833Z,98378.03
2022-08-02T03:07:46.288Z,98378.63
2022-08-02T03:10:15.711Z,98383.69
2022-08-02T03:12:44.309Z,98380.22
2022-08-02T03:15:16.900Z,98374.94
2022-08-02T03:17:48.557Z,98375.53
2022-08-02T03:20:20.092Z,98378.63
2022-08-02T03:22:49.622Z,98373.81
2022-08-02T03:25:19.528Z,98375.84
2022-08-02T03:27:48.511Z,98366.53
2022-08-02T03:30:17.211Z,98371.03
2022-08-02T03:32:50.717Z,98361.25
2022-08-02T03:35:24.189Z,98367.91
2022-08-02T03:37:58.094Z,98365.16
2022-08-02T03:40:29.475Z,98361.91
2022-08-02T03:42:59.448Z,98364.66
2022-08-02T03:45:30.344Z,98362.00
2022-08-02T03:48:02.440Z,98365.84
2022-08-02T03:50:52.470Z,98365.84
2022-08-02T03:53:24.728Z,98366.06
2022-08-02T03:55:55.924Z,98366.28
2022-08-02T03:58:26.031Z,98366.50
2022-08-02T04:00:58.503Z,98359.34
2022-08-02T04:03:29.401Z,98356.69
2022-08-02T04:06:03.426Z,98364.44
2022-08-02T04:08:38.012Z,98365.47
2022-08-02T04:11:25.187Z,98359.59
2022-08-02T04:13:56.642Z,98361.19
2022-08-02T04:16:39.480Z,98355.78
2022-08-02T04:19:15.464Z,98355.78
2022-08-02T04:21:52.076Z,98370.06
2022-08-02T04:24:28.638Z,98365.22
2022-08-02T04:27:19.504Z,98371.09
2022-08-02T04:29:50.835Z,98376.75
2022-08-02T04:32:19.711Z,98383.63
2022-08-02T04:35:17.774Z,98383.13
2022-08-02T04:38:05.740Z,98385.22
2022-08-02T04:40:30.020Z,98397.75
2022-08-02T04:42:59.088Z,98390.00
2022-08-02T04:45:30.196Z,98389.44
2022-08-02T04:48:07.143Z,98391.94
2022-08-02T04:50:38.366Z,98388.84
2022-08-02T04:53:07.275Z,98389.66
2022-08-02T04:55:36.389Z,98384.16
2022-08-02T04:58:23.868Z,98389.09
2022-08-02T05:00:53.958Z,98383.88
2022-08-02T05:03:22.562Z,98390.06
2022-08-02T05:05:52.566Z,98395.44
2022-08-02T05:08:21.337Z,98403.25
2022-08-02T05:10:50.003Z,98401.06
2022-08-02T05:13:18.566Z,98398.88
2022-08-02T05:15:50.280Z,98396.66
2022-08-02T05:18:18.988Z,98396.44
2022-08-02T05:20:48.142Z,98402.84
2022-08-02T05:23:18.901Z,98407.09
2022-08-02T05:25:48.513Z,98405.47
2022-08-02T05:28:17.010Z,98407.91
2022-08-02T05:30:48.763Z,98415.25
2022-08-02T05:33:18.288Z,98406.72
2022-08-02T05:35:46.835Z,98403.84
2022-08-02T05:38:17.328Z,98405.03
2022-08-02T05:40:54.438Z,98406.19
2022-08-02T05:43:24.470Z,98404.94
2022-08-02T05:45:55.135Z,98402.66
2022-08-02T05:48:30.656Z,98394.63
2022-08-02T05:51:06.928Z,98397.34
2022-08-02T05:53:47.521Z,98391.72
2022-08-02T05:56:26.324Z,98401.19
2022-08-02T05:59:04.254Z,98404.75
2022-08-02T06:01:38.606Z,98400.19
2022-08-02T06:04:10.471Z,98401.91
2022-08-02T06:06:45.297Z,98399.97
2022-08-02T06:09:23.206Z,98404.34
2022-08-02T06:12:02.639Z,98402.66
2022-08-02T06:14:34.715Z,98397.25
2022-08-02T06:17:06.423Z,98400.63
2022-08-02T06:19:51.335Z,98397.41
2022-08-02T06:22:34.618Z,98396.03
2022-08-02T06:25:48.182Z,98400.75
2022-08-02T06:28:00.215Z,98403.03
2022-08-02T06:30:30.450Z,98399.22
2022-08-02T06:33:03.109Z,98400.72
2022-08-02T06:35:52.455Z,98397.72
2022-08-02T06:38:27.324Z,98398.41
2022-08-02T06:41:06.758Z,98391.69
2022-08-02T06:43:48.436Z,98392.59
2022-08-02T06:46:38.123Z,98386.16
2022-08-02T06:49:07.381Z,98384.16
2022-08-02T06:51:36.262Z,98385.66
2022-08-02T06:54:06.386Z,98381.22
2022-08-02T06:56:37.488Z,98380.88
2022-08-02T06:59:06.818Z,98385.53
2022-08-02T07:01:38.577Z,98387.59
2022-08-02T07:04:08.449Z,98380.84
2022-08-02T07:06:37.441Z,98377.81
2022-08-02T07:09:22.217Z,98372.91
2022-08-02T07:11:52.219Z,98375.75
2022-08-02T07:14:20.776Z,98374.81
2022-08-02T07:16:49.311Z,98375.69
2022-08-02T07:19:18.211Z,98378.97
2022-08-02T07:21:59.336Z,98375.34
2022-08-02T07:24:36.624Z,98381.31
2022-08-02T07:27:12.103Z,98383.00
2022-08-02T07:29:45.257Z,98371.41
2022-08-02T07:32:16.477Z,98375.16
2022-08-02T07:34:51.254Z,98378.44
2022-08-02T07:37:35.926Z,98376.44
2022-08-02T07:40:19.931Z,98370.38
2022-08-02T07:42:54.570Z,98366.50
2022-08-02T07:45:26.721Z,98361.00
2022-08-02T07:47:57.497Z,98357.16
2022-08-02T07:50:28.349Z,98362.28
2022-08-02T07:52:58.024Z,98357.56
2022-08-02T07:55:40.274Z,98356.56
2022-08-02T07:58:13.658Z,98356.38
2022-08-02T08:00:44.723Z,98349.00
2022-08-02T08:03:13.948Z,98347.22
2022-08-02T08:05:42.670Z,98350.50
2022-08-02T08:08:17.121Z,98348.69
2022-08-02T08:10:46.365Z,98351.13
2022-08-02T08:13:16.916Z,98350.41
2022-08-02T08:15:51.761Z,98346.47
2022-08-02T08:18:22.145Z,98351.63
2022-08-02T08:20:51.845Z,98356.75
2022-08-02T08:23:21.951Z,98350.69
2022-08-02T08:25:51.110Z,98348.88
2022-08-02T08:28:21.706Z,98349.53
2022-08-02T08:30:50.883Z,98341.59
2022-08-02T08:33:19.477Z,98344.03
2022-08-02T08:35:48.940Z,98346.47
2022-08-02T08:38:18.263Z,98341.44
2022-08-02T08:40:48.215Z,98342.03
2022-08-02T08:43:17.118Z,98344.25
2022-08-02T08:45:55.913Z,98350.97
2022-08-02T08:48:31.619Z,98339.25
2022-08-02T08:51:11.532Z,98346.50
2022-08-02T08:53:44.670Z,98348.13
2022-08-02T08:56:16.474Z,98359.38
2022-08-02T08:58:47.479Z,98351.38
2022-08-02T09:01:18.220Z,98345.00
2022-08-02T09:03:47.227Z,98350.59
2022-08-02T09:06:15.774Z,98351.41
2022-08-02T09:08:45.045Z,98350.88
2022-08-02T09:11:18.835Z,98356.50
2022-08-02T09:13:55.732Z,98352.22
2022-08-02T09:16:37.461Z,98353.03
2022-08-02T09:19:21.276Z,98346.66
2022-08-02T09:21:52.198Z,98342.41
2022-08-02T09:24:22.900Z,98343.50
2022-08-02T09:26:52.476Z,98335.47
2022-08-02T09:29:25.390Z,98334.19
2022-08-02T09:32:05.082Z,98329.69
2022-08-02T09:34:49.718Z,98331.84
2022-08-02T09:37:27.145Z,98329.97
2022-08-02T09:40:00.037Z,98333.47
2022-08-02T09:42:30.738Z,98326.03
2022-08-02T09:45:01.747Z,98327.09
2022-08-02T09:47:33.520Z,98325.50
2022-08-02T09:50:11.043Z,98338.34
2022-08-02T09:52:45.170Z,98329.78
2022-08-02T09:55:14.303Z,98325.28
2022-08-02T09:57:43.662Z,98327.69
2022-08-02T10:00:31.446Z,98327.66
2022-08-02T10:03:21.355Z,98331.16
2022-08-02T10:05:56.316Z,98325.53
2022-08-02T10:08:32.845Z,98314.03
2022-08-02T10:11:03.451Z,98321.81
2022-08-02T10:13:34.511Z,98322.34
2022-08-02T10:16:06.273Z,98318.81
2022-08-02T10:18:39.849Z,98323.91
2022-08-02T10:21:13.992Z,98315.63
2022-08-02T10:23:47.355Z,98316.94
2022-08-02T10:26:19.601Z,98309.44
2022-08-02T10:28:50.683Z,98304.59
2022-08-02T10:31:32.650Z,98298.19
2022-08-02T10:34:04.883Z,98302.47
2022-08-02T10:36:36.162Z,98305.41
2022-08-02T10:39:05.801Z,98307.00
2022-08-02T10:41:47.431Z,98298.69
2022-08-02T10:44:28.954Z,98302.72
2022-08-02T10:47:25.127Z,98297.63
2022-08-02T10:49:57.940Z,98292.28
2022-08-02T10:52:27.835Z,98286.91
2022-08-02T10:54:59.461Z,98291.19
2022-08-02T10:57:30.403Z,98283.94
2022-08-02T11:00:03.891Z,98284.22
2022-08-02T11:02:41.583Z,98279.09
2022-08-02T11:05:43.445Z,98283.09
2022-08-02T11:08:25.041Z,98278.50
2022-08-02T11:11:00.424Z,98279.31
2022-08-02T11:13:30.240Z,98275.00
2022-08-02T11:16:07.716Z,98278.19
2022-08-02T11:19:07.444Z,98265.81
2022-08-02T11:21:37.932Z,98270.91
2022-08-02T11:24:29.597Z,98268.22
2022-08-02T11:27:00.719Z,98259.59
2022-08-02T11:29:39.055Z,98259.03
2022-08-02T11:32:09.652Z,98253.34
2022-08-02T11:34:40.439Z,98251.47
2022-08-02T11:37:10.713Z,98250.88
2022-08-02T11:39:39.310Z,98250.00
2022-08-02T11:42:09.588Z,98250.81
2022-08-02T11:44:46.624Z,98243.31
2022-08-02T11:47:15.774Z,98245.69
2022-08-02T11:49:45.303Z,98241.88
2022-08-02T11:52:17.195Z,98244.25
2022-08-02T11:54:46.005Z,98248.50
2022-08-02T11:57:20.521Z,98246.56
2022-08-02T11:59:54.942Z,98239.00
2022-08-02T12:02:28.897Z,98236.22
2022-08-02T12:05:02.119Z,98230.75
2022-08-02T12:07:36.157Z,98235.75
2022-08-02T12:10:09.336Z,98233.28
2022-08-02T12:12:51.766Z,98236.13
2022-08-02T12:15:37.892Z,98227.47
2022-08-02T12:18:29.954Z,98227.13
2022-08-02T12:20:59.402Z,98225.97
2022-08-02T12:23:30.296Z,98221.88
2022-08-02T12:26:04.475Z,98226.66
2022-08-02T12:28:39.148Z,98226.31
2022-08-02T12:31:13.337Z,98226.53
2022-08-02T12:33:51.606Z,98224.38
2022-08-02T12:36:23.436Z,98215.94
2022-08-02T12:38:54.323Z,98218.59
2022-08-02T12:41:31.066Z,98206.16
2022-08-02T12:44:01.512Z,98213.84
2022-08-02T12:46:35.574Z,98209.78
2022-08-02T12:49:19.317Z,98211.81
2022-08-02T12:51:55.645Z,98204.97
2022-08-02T12:54:32.732Z,98210.53
2022-08-02T12:57:12.870Z,98207.84
2022-08-02T12:59:45.202Z,98201.56
2022-08-02T13:02:16.915Z,98207.38
2022-08-02T13:04:49.712Z,98204.81
2022-08-02T13:07:20.649Z,98202.84
2022-08-02T13:09:50.501Z,98194.50
2022-08-02T13:12:19.586Z,98199.50
2022-08-02T13:14:48.749Z,98197.72
2022-08-02T13:17:17.249Z,98192.16
2022-08-02T13:19:45.805Z,98197.75
2022-08-02T13:22:20.255Z,98193.31
2022-08-02T13:24:56.130Z,98184.84
2022-08-02T13:27:27.408Z,98187.63
2022-08-02T13:29:58.392Z,98188.03
2022-08-02T13:32:29.683Z,98186.72
2022-08-02T13:34:59.951Z,98187.72
2022-08-02T13:37:28.605Z,98178.56
2022-08-02T13:40:20.576Z,98179.38
2022-08-02T13:42:48.363Z,98170.09
2022-08-02T13:45:17.575Z,98175.09
2022-08-02T13:48:04.885Z,98163.31
2022-08-02T13:50:35.872Z,98165.41
2022-08-02T13:53:04.297Z,98164.22
2022-08-02T13:55:34.287Z,98157.44
2022-08-02T13:58:04.881Z,98158.03
2022-08-02T14:00:35.410Z,98154.09
2022-08-02T14:03:12.166Z,98156.09
2022-08-02T14:05:48.303Z,98164.03
2022-08-02T14:08:19.173Z,98155.25
2022-08-02T14:10:50.126Z,98160.38
2022-08-02T14:13:19.592Z,98144.63
2022-08-02T14:15:48.522Z,98140.66
2022-08-02T14:18:17.476Z,98137.63
2022-08-02T14:20:49.279Z,98140.88
2022-08-02T14:23:17.840Z,98139.97
2022-08-02T14:25:48.371Z,98138.56
2022-08-02T14:28:17.202Z,98139.53
2022-08-02T14:30:46.423Z,98136.38
2022-08-02T14:33:15.530Z,98137.94
2022-08-02T14:35:44.066Z,98137.31
2022-08-02T14:38:12.499Z,98127.03
2022-08-02T14:40:41.037Z,98129.91
2022-08-02T14:43:10.905Z,98135.97
2022-08-02T14:45:40.924Z,98135.97
2022-08-02T14:48:12.580Z,98131.19
2022-08-02T14:50:41.209Z,98134.03
2022-08-02T14:53:12.054Z,98125.50
2022-08-02T14:55:43.549Z,98125.19
2022-08-02T14:58:14.247Z,98128.03
2022-08-02T15:00:43.952Z,98122.31
2022-08-02T15:03:13.049Z,98122.81
2022-08-02T15:05:42.478Z,98125.69
2022-08-02T15:08:11.058Z,98130.75
2022-08-02T15:10:40.240Z,98129.66
2022-08-02T15:13:09.395Z,98134.69
2022-08-02T15:15:43.191Z,98127.06
2022-08-02T15:18:13.928Z,98123.91
2022-08-02T15:20:51.523Z,98118.97
2022-08-02T15:23:37.188Z,98124.88
2022-08-02T15:26:08.149Z,98123.44
2022-08-02T15:28:38.592Z,98120.56
2022-08-02T15:31:08.509Z,98126.53
2022-08-02T15:33:37.018Z,98123.53
2022-08-02T15:36:06.627Z,98115.94
2022-08-02T15:38:36.772Z,98119.94
2022-08-02T15:41:05.560Z,98118.63
2022-08-02T15:43:40.843Z,98115.94
2022-08-02T15:46:30.696Z,98117.16
2022-08-02T15:49:00.090Z,98121.13
2022-08-02T15:51:29.850Z,98114.97
2022-08-02T15:53:58.982Z,98118.94
2022-08-02T15:56:27.713Z,98112.75
2022-08-02T15:58:58.655Z,98110.06
2022-08-02T16:01:37.374Z,98119.56
2022-08-02T16:04:07.780Z,98113.38
2022-08-02T16:06:37.009Z,98108.78
2022-08-02T16:09:05.742Z,98114.19
2022-08-02T16:11:34.518Z,98118.78
2022-08-02T16:14:03.321Z,98114.47
2022-08-02T16:16:35.619Z,98114.19
2022-08-02T16:19:47.286Z,98122.56
2022-08-02T16:21:56.366Z,98117.97
2022-08-02T16:24:26.298Z,98118.88
2022-08-02T16:26:55.231Z,98114.63
2022-08-02T16:29:24.091Z,98113.28
2022-08-02T16:31:54.037Z,98114.69
2022-08-02T16:34:22.513Z,98123.53
2022-08-02T16:36:50.955Z,98117.69
2022-08-02T16:39:19.482Z,98110.88
2022-08-02T16:41:51.276Z,98120.47
2022-08-02T16:44:26.925Z,98115.28
2022-08-02T16:47:13.680Z,98114.97
2022-08-02T16:50:05.296Z,98119.28
2022-08-02T16:52:33.222Z,98106.28
2022-08-02T16:55:02.476Z,98101.50
2022-08-02T16:57:43.331Z,98103.09
2022-08-02T17:00:16.096Z,98104.69
2022-08-02T17:02:47.329Z,98096.91
2022-08-02T17:05:16.074Z,98101.69
2022-08-02T17:08:15.682Z,98095.38
2022-08-02T17:10:36.266Z,98095.25
2022-08-02T17:13:11.118Z,98099.66
2022-08-02T17:16:07.877Z,98088.88
2022-08-02T17:18:33.918Z,98094.63
2022-08-02T17:21:04.253Z,98095.31
2022-08-02T17:24:04.476Z,98097.06
2022-08-02T17:26:23.524Z,98092.47
2022-08-02T17:29:16.282Z,98101.34
2022-08-02T17:31:44.796Z,98092.16
2022-08-02T17:34:33.584Z,98094.53
2022-08-02T17:37:02.189Z,98090.91
2022-08-02T17:39:44.479Z,98088.19
2022-08-02T17:42:23.104Z,98101.50
2022-08-02T17:45:24.925Z,98091.44
2022-08-02T17:48:04.694Z,98096.03
2022-08-02T17:50:35.524Z,98098.25
2022-08-02T17:53:05.523Z,98099.19
2022-08-02T17:55:40.591Z,98094.88
2022-08-02T17:58:12.440Z,98094.69
2022-08-02T18:00:41.225Z,98096.75
2022-08-02T18:03:14.120Z,98089.53
2022-08-02T18:05:53.419Z,98096.97
2022-08-02T18:08:24.705Z,98099.38
2022-08-02T18:10:53.895Z,98096.13
2022-08-02T18:13:22.488Z,98095.47
2022-08-02T18:15:57.040Z,98098.88
2022-08-02T18:18:29.228Z,98100.69
2022-08-02T18:21:15.348Z,98098.31
2022-08-02T18:23:49.385Z,98097.09
2022-08-02T18:26:20.910Z,98093.53
2022-08-02T18:28:49.853Z,98101.03
2022-08-02T18:31:22.956Z,98097.75
2022-08-02T18:33:58.682Z,98102.53
2022-08-02T18:36:32.217Z,98100.56
2022-08-02T18:39:08.047Z,98096.56
2022-08-02T18:41:37.938Z,98097.47
2022-08-02T18:44:07.291Z,98098.13
2022-08-02T18:46:36.334Z,98096.13
2022-08-02T18:49:15.025Z,98097.53
2022-08-02T18:51:46.429Z,98101.09
2022-08-02T18:54:15.651Z,98100.09
2022-08-02T18:56:47.501Z,98104.28
2022-08-02T18:59:16.843Z,98100.38
2022-08-02T19:01:50.610Z,98087.81
2022-08-02T19:04:26.897Z,98099.66
2022-08-02T19:07:06.966Z,98096.56
2022-08-02T19:09:40.251Z,98102.38
2022-08-02T19:12:11.545Z,98102.78
2022-08-02T19:14:41.077Z,98102.94
2022-08-02T19:17:15.957Z,98101.19
2022-08-02T19:19:58.857Z,98102.09
2022-08-02T19:25:20.883Z,98108.75
2022-08-02T19:27:58.087Z,98111.59
2022-08-02T19:30:28.023Z,98115.41
2022-08-02T19:32:59.507Z,98112.88
2022-08-02T19:35:34.386Z,98116.78
2022-08-02T19:38:12.989Z,98112.34
2022-08-02T19:40:42.953Z,98120.75
2022-08-02T19:44:25.009Z,98119.72
2022-08-02T19:46:01.679Z,98117.16
2022-08-02T19:48:31.090Z,98121.22
2022-08-02T19:51:01.490Z,98118.59
2022-08-02T19:53:48.688Z,98121.09
2022-08-02T19:56:25.295Z,98126.25
2022-08-02T19:58:57.670Z,98121.50
2022-08-02T20:01:36.651Z,98127.19
2022-08-02T20:04:07.371Z,98132.91
2022-08-02T20:06:42.815Z,98124.69
2022-08-02T20:09:17.179Z,98131.41
2022-08-02T20:11:54.255Z,98134.72
2022-08-02T20:14:40.083Z,98129.69
2022-08-02T20:17:20.878Z,98134.06
2022-08-02T20:19:49.664Z,98126.03
2022-08-02T20:22:20.751Z,98135.72
2022-08-02T20:24:50.696Z,98142.44
2022-08-02T20:27:23.024Z,98130.41
2022-08-02T20:29:54.486Z,98137.41
2022-08-02T20:32:23.994Z,98138.56
2022-08-02T20:34:53.417Z,98137.06
2022-08-02T20:37:59.270Z,98131.44
2022-08-02T20:40:16.437Z,98137.38
2022-08-02T20:42:47.882Z,98146.44
2022-08-02T20:45:17.462Z,98146.25
2022-08-02T20:47:49.814Z,98154.28
2022-08-02T20:50:37.578Z,98152.72
2022-08-02T20:53:08.106Z,98157.28
2022-08-02T20:55:55.732Z,98151.19
2022-08-02T20:58:27.187Z,98161.63
2022-08-02T21:00:59.789Z,98158.16
2022-08-02T21:03:39.191Z,98163.53
2022-08-02T21:06:11.434Z,98165.94
2022-08-02T21:08:46.208Z,98163.03
2022-08-02T21:11:16.547Z,98158.22
2022-08-02T21:13:47.071Z,98156.09
2022-08-02T21:16:33.921Z,98157.16
2022-08-02T21:19:03.178Z,98158.22
2022-08-02T21:21:38.905Z,98153.97
2022-08-02T21:24:12.398Z,98153.69
2022-08-02T21:26:43.342Z,98152.63
2022-08-02T21:29:17.080Z,98158.81
2022-08-02T21:31:45.558Z,98144.91
2022-08-02T21:34:21.686Z,98151.59
2022-08-02T21:36:55.977Z,98152.69
2022-08-02T21:39:24.627Z,98150.81
2022-08-02T21:41:54.573Z,98155.34
2022-08-02T21:44:24.877Z,98155.91
2022-08-02T21:46:55.717Z,98154.53
2022-08-02T21:50:09.669Z,98155.31
2022-08-02T21:52:17.025Z,98155.06
2022-08-02T21:54:47.184Z,98157.19
2022-08-02T21:57:18.543Z,98164.66
2022-08-02T21:59:52.749Z,98157.72
2022-08-02T22:02:30.567Z,98165.44
2022-08-02T22:05:02.551Z,98165.44
2022-08-02T22:07:38.520Z,98165.16
2022-08-02T22:10:10.138Z,98165.69
2022-08-02T22:12:40.088Z,98169.16
2022-08-02T22:15:11.608Z,98166.44
2022-08-02T22:17:50.569Z,98173.66
2022-08-02T22:20:22.597Z,98173.38
2022-08-02T22:22:52.648Z,98168.84
2022-08-02T22:25:31.413Z,98170.72
2022-08-02T22:28:37.587Z,98175.50
2022-08-02T22:31:00.012Z,98170.38
2022-08-02T22:33:47.265Z,98174.34
2022-08-02T22:36:30.646Z,98174.34
2022-08-02T22:38:59.732Z,98180.44
2022-08-02T22:42:00.152Z,98180.16
2022-08-02T22:44:20.014Z,98181.44
2022-08-02T22:47:51.030Z,98185.41
2022-08-02T22:50:20.236Z,98181.41
2022-08-02T22:52:50.714Z,98179.03
2022-08-02T22:55:19.619Z,98189.94
2022-08-02T22:58:47.819Z,98107.81
2022-08-02T23:00:40.147Z,98190.44
2022-08-02T23:03:09.545Z,98184.03
2022-08-02T23:05:39.002Z,98178.13
2022-08-02T23:08:08.615Z,98185.81
2022-08-02T23:10:37.137Z,98186.06
2022-08-02T23:13:05.624Z,98179.38
2022-08-02T23:15:54.619Z,98190.28
2022-08-02T23:18:42.319Z,98198.75
2022-08-02T23:21:11.459Z,98193.13
2022-08-02T23:23:40.959Z,98183.75
2022-08-02T23:26:09.840Z,98186.66
2022-08-02T23:28:38.405Z,98191.38
2022-08-02T23:59:39.650Z,98196.88
